KHUM/HUM METAR and TAF weather

Enter ICAO airport designator
Station Type Date Time Source
KHUM METAR 2022/06/25 23:50 UTC NOAA

KHUM 252350Z 26007KT 7SM CLR 32/25 A2997


Station Type Date Time Source
KHUM Decoded METAR 2022/06/25 23:50 UTC NOAA

Houma-Terrebonne, LA, United States (KHUM) 29-34N 090-40W
Jun 25, 2022 - 07:50 PM EDT / 2022.06.25 2350 UTC
Wind: from the W (260 degrees) at 8 MPH (7 KT):0
Visibility: 7 mile(s):0
Sky conditions: clear
Temperature: 89 F (32 C)
Heat index: 100.6 F (38.1 C):1
Dew Point: 77 F (25 C)
Relative Humidity: 66%
Pressure (altimeter): 29.97 in. Hg (1014 hPa)
ob: KHUM 252350Z 26007KT 7SM CLR 32/25 A2997
cycle: 0

Station Type Date Time Source
KHUM TAF 2022/06/25 18:22 UTC NOAA

TAF KHUM 251720Z 2518/2618 28006KT P6SM FEW110
FM252000 23008KT P6SM VCTS SCT100CB
FM252200 20010KT P6SM VCTS BKN100CB
FM252300 23008KT P6SM VCTS SCT100CB
FM260100 24006KT P6SM SCT110
FM261700 30007KT P6SM BKN080

Example: see airport list